Time;durP1;ratioP1;P1;durP2;ratioP2;P2;SDS_P1;SDS_P2;PMS_P1;PMS_P2;Temp;Humidity;BMP_temperature;BMP_pressure;BME280_temperature;BME280_humidity;BME280_pressure;Samples;Min_cycle;Max_cycle;Signal;HPM_P1;HPM_P2
2022/02/21 00:01:23;;;;;;;0.50;0.50;;;8.50;99.90;;;;;;5010190;28;20205;-79
2022/02/21 00:03:50;;;;;;;0.47;0.47;;;8.60;99.90;;;;;;5022793;28;20274;-79
2022/02/21 00:06:18;;;;;;;0.50;0.50;;;8.60;99.90;;;;;;5004543;28;20263;-80
2022/02/21 00:08:46;;;;;;;0.50;0.50;;;8.60;99.90;;;;;;5005625;28;20596;-79
2022/02/21 00:11:22;;;;;;;1.90;0.47;;;8.50;99.90;;;;;;5003523;28;20259;-79
2022/02/21 00:13:48;;;;;;;0.40;0.40;;;8.60;99.90;;;;;;5004759;28;20239;-82
2022/02/21 00:16:15;;;;;;;0.50;0.50;;;8.60;99.90;;;;;;5008506;28;20255;-84
2022/02/21 00:18:41;;;;;;;0.90;0.40;;;8.70;99.90;;;;;;5006349;28;20233;-82
2022/02/21 00:21:22;;;;;;;0.73;0.50;;;8.70;99.90;;;;;;5027084;28;20636;-83
2022/02/21 00:23:50;;;;;;;0.47;0.47;;;8.90;99.90;;;;;;5004611;28;20229;-83
2022/02/21 00:26:18;;;;;;;0.40;0.30;;;8.80;99.90;;;;;;5003459;28;20655;-83
2022/02/21 00:28:45;;;;;;;0.63;0.60;;;8.80;99.90;;;;;;5008739;28;20217;-83
2022/02/21 00:31:15;;;;;;;0.50;0.40;;;8.80;99.90;;;;;;5005486;28;20210;-83
2022/02/21 00:33:42;;;;;;;0.80;0.60;;;9.00;99.90;;;;;;5016135;28;20556;-83
2022/02/21 00:36:17;;;;;;;1.87;0.70;;;9.10;99.90;;;;;;5015644;28;20232;-83
2022/02/21 00:38:44;;;;;;;2.20;0.57;;;9.20;99.90;;;;;;5005170;28;20277;-83
2022/02/21 00:41:21;;;;;;;0.37;0.37;;;9.20;99.90;;;;;;5015633;28;20274;-82
2022/02/21 00:43:48;;;;;;;0.43;0.43;;;9.10;99.90;;;;;;4987736;28;20706;-82
2022/02/21 00:46:26;;;;;;;0.60;0.50;;;9.30;99.90;;;;;;5009180;28;20266;-80
2022/02/21 00:48:53;;;;;;;0.60;0.50;;;9.20;99.90;;;;;;5003408;28;21396;-80
2022/02/21 00:51:20;;;;;;;0.60;0.50;;;9.20;99.90;;;;;;5077249;28;20820;-80
2022/02/21 00:53:46;;;;;;;0.53;0.43;;;9.20;99.90;;;;;;5026356;28;20240;-80
2022/02/21 00:56:27;;;;;;;1.03;0.63;;;9.20;99.90;;;;;;4986890;28;20195;-81
2022/02/21 00:58:53;;;;;;;0.50;0.50;;;9.50;99.90;;;;;;5003474;28;20431;-79
2022/02/21 01:01:23;;;;;;;3.07;0.80;;;9.60;99.90;;;;;;5004880;28;20906;-80
2022/02/21 01:03:50;;;;;;;1.27;0.57;;;9.90;99.90;;;;;;5004936;28;20241;-81
2022/02/21 01:06:29;;;;;;;0.63;0.30;;;9.80;99.90;;;;;;5003016;28;20209;-80
2022/02/21 01:08:55;;;;;;;1.30;0.60;;;9.80;99.90;;;;;;4988777;28;20248;-81
2022/02/21 01:11:22;;;;;;;0.50;0.50;;;9.90;99.90;;;;;;5004406;28;20736;-80
2022/02/21 01:13:50;;;;;;;1.43;0.63;;;9.80;99.90;;;;;;5002310;28;20262;-81
2022/02/21 01:16:20;;;;;;;1.20;0.70;;;10.00;99.90;;;;;;5002611;28;20213;-81
2022/02/21 01:18:46;;;;;;;0.63;0.60;;;10.00;99.90;;;;;;5016555;28;20218;-80
2022/02/21 01:21:19;;;;;;;0.60;0.60;;;9.90;99.90;;;;;;4986904;28;20225;-81
2022/02/21 01:23:46;;;;;;;1.10;0.50;;;9.90;99.90;;;;;;5003589;28;20241;-82
2022/02/21 01:26:19;;;;;;;0.70;0.70;;;10.00;99.90;;;;;;5003995;28;20205;-84
2022/02/21 01:28:45;;;;;;;2.53;0.80;;;10.00;99.90;;;;;;5003676;28;20231;-82
2022/02/21 01:31:16;;;;;;;0.40;0.40;;;10.00;99.90;;;;;;5007925;28;20274;-82
2022/02/21 01:33:43;;;;;;;0.70;0.70;;;10.10;99.90;;;;;;4985739;28;20581;-82
2022/02/21 01:36:19;;;;;;;1.80;0.67;;;10.20;99.90;;;;;;5004071;28;20672;-83
2022/02/21 01:38:45;;;;;;;0.70;0.30;;;10.20;99.90;;;;;;5002728;28;20235;-78
2022/02/21 01:41:15;;;;;;;0.90;0.40;;;10.20;99.90;;;;;;5008383;28;20250;-79
2022/02/21 01:43:42;;;;;;;0.60;0.53;;;10.20;99.90;;;;;;5011741;28;20237;-79
2022/02/21 01:46:22;;;;;;;0.80;0.50;;;10.20;99.90;;;;;;5004054;28;20210;-79
2022/02/21 01:48:49;;;;;;;0.67;0.50;;;10.30;99.90;;;;;;5014307;28;20241;-79
2022/02/21 01:51:15;;;;;;;0.67;0.50;;;10.30;99.90;;;;;;5002938;28;20214;-79
2022/02/21 01:53:42;;;;;;;1.77;0.50;;;10.30;99.90;;;;;;5072249;28;20299;-78
2022/02/21 01:56:09;;;;;;;0.70;0.50;;;10.50;99.90;;;;;;5031785;28;20209;-79
2022/02/21 01:58:35;;;;;;;2.30;0.40;;;10.40;99.90;;;;;;5003362;28;20213;-79
2022/02/21 02:01:02;;;;;;;0.20;0.20;;;10.40;99.90;;;;;;5008903;28;20242;-80
2022/02/21 02:03:30;;;;;;;1.40;0.57;;;10.60;99.90;;;;;;5009155;28;20206;-79
2022/02/21 02:05:57;;;;;;;1.60;0.57;;;10.50;99.90;;;;;;5008177;28;20206;-80
2022/02/21 02:08:23;;;;;;;0.70;0.50;;;10.40;99.90;;;;;;5010495;28;20218;-79
2022/02/21 02:10:50;;;;;;;0.60;0.60;;;10.40;99.90;;;;;;5003378;28;20209;-80
2022/02/21 02:13:17;;;;;;;1.13;0.43;;;10.50;99.90;;;;;;5017798;28;20207;-79
2022/02/21 02:15:43;;;;;;;1.13;0.40;;;10.60;99.90;;;;;;5002590;28;20214;-79
2022/02/21 02:18:11;;;;;;;0.50;0.50;;;10.50;99.90;;;;;;5060724;28;20209;-80
2022/02/21 02:20:39;;;;;;;1.07;0.40;;;10.40;99.90;;;;;;5061053;28;20217;-80
2022/02/21 02:23:07;;;;;;;1.10;0.30;;;10.10;99.90;;;;;;5006208;28;20206;-80
2022/02/21 02:25:34;;;;;;;0.60;0.43;;;10.10;99.90;;;;;;5007776;28;20286;-81
2022/02/21 02:28:01;;;;;;;0.60;0.60;;;10.00;99.90;;;;;;5006155;28;20267;-80
2022/02/21 02:30:28;;;;;;;0.60;0.60;;;9.90;99.90;;;;;;5010979;28;20221;-79
2022/02/21 02:32:55;;;;;;;2.00;0.50;;;9.80;99.90;;;;;;5005842;28;20586;-80
2022/02/21 02:35:22;;;;;;;0.40;0.37;;;9.10;99.90;;;;;;5014110;28;20205;-82
2022/02/21 02:37:49;;;;;;;0.70;0.40;;;8.60;99.90;;;;;;5014280;28;20659;-82
2022/02/21 02:40:17;;;;;;;0.70;0.30;;;8.20;99.90;;;;;;5096919;28;20198;-84
2022/02/21 02:42:44;;;;;;;0.27;0.20;;;8.10;99.90;;;;;;5033323;28;20205;-84
2022/02/21 02:45:10;;;;;;;0.17;0.17;;;8.10;99.90;;;;;;5012979;28;20614;-84
2022/02/21 02:47:37;;;;;;;0.10;0.10;;;8.00;99.90;;;;;;5019871;28;20209;-83
2022/02/21 02:50:05;;;;;;;0.27;0.27;;;8.00;99.90;;;;;;5015724;28;20263;-83
2022/02/21 02:52:32;;;;;;;0.47;0.30;;;8.00;99.90;;;;;;5012788;28;20250;-83
2022/02/21 02:54:59;;;;;;;1.07;0.30;;;8.00;99.90;;;;;;5003341;28;20333;-84
2022/02/21 02:58:06;;;;;;;0.50;0.50;;;7.90;99.90;;;;;;5010854;28;20210;-83
2022/02/21 03:00:34;;;;;;;0.30;0.30;;;7.80;99.90;;;;;;5017708;28;20217;-83
2022/02/21 03:03:01;;;;;;;0.30;0.20;;;7.70;99.90;;;;;;5017110;28;20213;-85
2022/02/21 03:05:28;;;;;;;0.30;0.20;;;7.70;99.90;;;;;;5005685;28;20233;-84
2022/02/21 03:07:55;;;;;;;0.20;0.20;;;7.70;99.90;;;;;;5014350;28;20571;-84
2022/02/21 03:10:21;;;;;;;0.40;0.10;;;7.70;99.90;;;;;;5006294;28;20209;-84
2022/02/21 03:12:48;;;;;;;0.20;0.20;;;7.70;99.90;;;;;;5008493;28;20996;-84
2022/02/21 03:15:14;;;;;;;0.23;0.23;;;7.70;99.90;;;;;;5005864;28;20214;-84
2022/02/21 03:17:42;;;;;;;1.40;0.40;;;7.70;99.90;;;;;;5012372;28;20278;-83
2022/02/21 03:20:10;;;;;;;0.83;0.30;;;7.80;99.90;;;;;;5029864;28;20213;-84
2022/02/21 03:22:37;;;;;;;0.30;0.30;;;7.70;99.90;;;;;;5010929;28;20290;-85
2022/02/21 03:25:04;;;;;;;0.10;0.10;;;7.70;99.90;;;;;;5057887;28;20275;-83
2022/02/21 03:27:30;;;;;;;0.20;0.20;;;7.70;99.90;;;;;;5039953;28;20274;-84
2022/02/21 03:29:57;;;;;;;0.27;0.20;;;7.70;99.90;;;;;;4993422;28;20229;-84
2022/02/21 03:32:24;;;;;;;0.30;0.20;;;7.70;99.90;;;;;;4997357;28;20210;-83
2022/02/21 03:34:52;;;;;;;0.17;0.17;;;7.70;99.90;;;;;;5002754;28;20245;-83
2022/02/21 03:37:18;;;;;;;0.67;0.30;;;7.60;99.90;;;;;;4992150;28;20214;-84
2022/02/21 03:39:45;;;;;;;0.40;0.20;;;7.60;99.90;;;;;;4993291;28;20283;-82
2022/02/21 03:42:12;;;;;;;0.17;0.17;;;7.60;99.90;;;;;;5000266;28;20218;-81
2022/02/21 03:44:40;;;;;;;0.73;0.70;;;7.60;99.90;;;;;;4997634;28;20237;-82
2022/02/21 03:47:07;;;;;;;0.20;0.17;;;7.60;99.90;;;;;;5002776;28;20357;-81
2022/02/21 03:49:34;;;;;;;0.93;0.20;;;7.60;99.90;;;;;;4999771;28;20237;-83
2022/02/21 03:52:02;;;;;;;0.40;0.33;;;7.60;99.90;;;;;;4997805;28;20205;-84
2022/02/21 03:54:29;;;;;;;0.40;0.20;;;7.70;99.90;;;;;;5000849;28;20269;-83
2022/02/21 03:56:56;;;;;;;0.00;0.00;;;7.60;99.90;;;;;;4999475;28;20433;-76
2022/02/21 03:59:22;;;;;;;0.20;0.20;;;7.60;99.90;;;;;;5002394;28;20206;-85
2022/02/21 04:01:49;;;;;;;0.23;0.20;;;7.60;99.90;;;;;;4999778;28;20258;-84
2022/02/21 04:04:16;;;;;;;1.60;0.20;;;7.60;99.90;;;;;;4998992;28;20245;-84
2022/02/21 04:06:45;;;;;;;0.40;0.17;;;7.60;99.90;;;;;;5009174;28;20205;-83
2022/02/21 04:09:13;;;;;;;0.23;0.20;;;7.60;99.90;;;;;;4997174;28;20206;-84
2022/02/21 04:12:15;;;;;;;0.20;0.20;;;7.60;99.90;;;;;;5010601;28;20262;-83
2022/02/21 04:14:42;;;;;;;0.60;0.30;;;7.60;99.90;;;;;;5064952;28;20246;-83
2022/02/21 04:17:09;;;;;;;0.73;0.43;;;7.60;99.90;;;;;;5059682;28;20205;-83
2022/02/21 04:19:35;;;;;;;0.33;0.33;;;7.60;99.90;;;;;;5017389;28;20202;-83
2022/02/21 04:22:46;;;;;;;0.33;0.30;;;7.50;99.90;;;;;;5012975;28;20242;-83
2022/02/21 04:25:14;;;;;;;0.50;0.23;;;7.50;99.90;;;;;;4993660;28;20225;-84
2022/02/21 04:27:43;;;;;;;0.40;0.40;;;7.50;99.90;;;;;;5018277;28;20262;-82
2022/02/21 04:30:11;;;;;;;2.30;0.30;;;7.40;99.90;;;;;;5005708;28;20241;-83
2022/02/21 04:32:38;;;;;;;0.50;0.30;;;7.40;99.90;;;;;;5006135;28;20675;-83
2022/02/21 04:35:07;;;;;;;0.60;0.20;;;7.50;99.90;;;;;;5006465;28;20217;-83
2022/02/21 04:37:34;;;;;;;0.00;0.00;;;7.50;99.90;;;;;;5011948;28;20213;-84
2022/02/21 04:40:01;;;;;;;0.70;0.10;;;7.50;99.90;;;;;;5002960;28;20586;-83
2022/02/21 04:42:29;;;;;;;0.30;0.23;;;7.40;99.90;;;;;;5015457;28;20206;-82
2022/02/21 04:44:56;;;;;;;0.73;0.20;;;7.30;99.90;;;;;;5005970;28;20353;-83
2022/02/21 04:47:22;;;;;;;0.20;0.20;;;7.30;99.90;;;;;;5017158;28;20213;-83
2022/02/21 04:49:49;;;;;;;0.77;0.40;;;7.20;99.90;;;;;;5006020;28;20213;-83
2022/02/21 04:52:17;;;;;;;0.77;0.40;;;7.10;99.90;;;;;;5007729;28;20210;-82
2022/02/21 04:54:45;;;;;;;0.37;0.20;;;7.10;99.90;;;;;;5001659;28;20238;-82
2022/02/21 04:57:42;;;;;;;1.37;0.30;;;7.10;99.90;;;;;;5006057;28;20213;-82
2022/02/21 05:00:11;;;;;;;0.40;0.20;;;7.00;99.90;;;;;;5015080;28;20225;-83
2022/02/21 05:02:38;;;;;;;0.20;0.20;;;7.00;99.90;;;;;;5007250;28;20861;-83
2022/02/21 05:05:07;;;;;;;2.03;0.30;;;6.90;99.90;;;;;;5005653;28;20244;-83
2022/02/21 05:07:34;;;;;;;1.43;0.20;;;6.90;99.90;;;;;;5005196;28;20440;-83
2022/02/21 05:10:00;;;;;;;0.50;0.30;;;6.90;99.90;;;;;;5005152;28;20202;-83
2022/02/21 05:12:27;;;;;;;0.57;0.30;;;6.90;99.90;;;;;;5003107;28;20201;-83
2022/02/21 05:14:55;;;;;;;0.43;0.43;;;6.80;99.90;;;;;;5005415;28;20298;-82
2022/02/21 05:17:21;;;;;;;2.20;0.70;;;6.80;99.90;;;;;;5004674;28;20210;-82
2022/02/21 05:19:48;;;;;;;1.37;0.47;;;6.80;99.90;;;;;;5009071;28;20210;-82
2022/02/21 05:22:15;;;;;;;1.33;0.57;;;6.80;99.90;;;;;;5010647;28;20213;-82
2022/02/21 05:24:42;;;;;;;0.77;0.60;;;6.70;99.90;;;;;;5016816;28;20206;-83
2022/02/21 05:27:50;;;;;;;1.53;0.50;;;6.70;99.90;;;;;;5005057;28;20206;-83
2022/02/21 05:30:18;;;;;;;2.13;0.73;;;6.70;99.90;;;;;;5016562;28;20209;-83
2022/02/21 05:32:45;;;;;;;1.27;0.47;;;6.70;99.90;;;;;;5006696;28;20202;-83
2022/02/21 05:35:12;;;;;;;2.37;0.80;;;6.70;99.90;;;;;;5007837;28;20224;-83
2022/02/21 05:38:04;;;;;;;3.67;0.70;;;6.60;99.90;;;;;;5021844;28;20209;-82
2022/02/21 05:40:30;;;;;;;1.83;0.67;;;6.60;99.90;;;;;;5009789;28;20238;-83
2022/02/21 05:42:57;;;;;;;1.97;0.50;;;6.60;99.90;;;;;;5008754;28;20216;-83
2022/02/21 05:45:25;;;;;;;4.57;0.97;;;6.60;99.90;;;;;;5011645;28;20816;-82
2022/02/21 05:47:52;;;;;;;3.53;0.90;;;6.60;99.90;;;;;;5096105;28;20238;-84
2022/02/21 05:50:19;;;;;;;1.50;1.17;;;6.50;99.90;;;;;;5016313;28;20214;-83
2022/02/21 05:52:46;;;;;;;1.90;0.70;;;6.50;99.90;;;;;;5005357;28;20242;-82
2022/02/21 05:55:13;;;;;;;1.83;0.63;;;6.50;99.90;;;;;;5018676;28;20241;-83
2022/02/21 05:57:40;;;;;;;3.43;0.70;;;6.50;99.90;;;;;;5013565;28;20214;-82
2022/02/21 06:00:09;;;;;;;1.47;1.00;;;6.40;99.90;;;;;;5008356;28;20267;-83
2022/02/21 06:02:37;;;;;;;3.33;1.43;;;6.40;99.90;;;;;;5017724;28;20205;-82
2022/02/21 06:05:04;;;;;;;1.10;0.70;;;6.40;99.90;;;;;;5013841;28;20267;-83
2022/02/21 06:07:31;;;;;;;2.47;1.30;;;6.40;99.90;;;;;;5003540;28;20202;-83
2022/02/21 06:09:59;;;;;;;3.63;1.00;;;6.20;99.90;;;;;;5012476;28;20210;-84
2022/02/21 06:13:01;;;;;;;3.00;1.13;;;5.80;99.90;;;;;;5008898;28;20210;-83
2022/02/21 06:15:28;;;;;;;3.20;0.87;;;5.70;99.90;;;;;;5020646;28;20213;-83
2022/02/21 06:17:58;;;;;;;3.03;0.90;;;5.60;99.90;;;;;;5020337;28;20624;-83
2022/02/21 06:20:25;;;;;;;5.13;1.20;;;5.40;99.90;;;;;;5008780;28;20280;-83
2022/02/21 06:22:52;;;;;;;2.90;1.00;;;5.40;99.90;;;;;;5013707;28;20764;-83
2022/02/21 06:25:19;;;;;;;2.10;0.90;;;5.30;99.90;;;;;;5099885;28;20261;-83
2022/02/21 06:27:45;;;;;;;3.63;1.27;;;5.30;99.90;;;;;;5014145;28;20702;-83
2022/02/21 06:30:13;;;;;;;3.20;0.97;;;5.20;99.90;;;;;;5008055;28;20263;-83
2022/02/21 06:32:40;;;;;;;2.03;0.73;;;5.10;99.90;;;;;;5009144;28;20213;-82
2022/02/21 06:35:10;;;;;;;4.10;1.27;;;5.10;99.90;;;;;;5013171;28;20263;-83
2022/02/21 06:37:42;;;;;;;2.40;0.80;;;5.00;99.90;;;;;;5101084;28;20301;-83
2022/02/21 06:40:10;;;;;;;4.60;1.17;;;5.00;99.90;;;;;;5006168;28;20231;-83
2022/02/21 06:42:38;;;;;;;3.23;1.00;;;5.10;99.90;;;;;;5007447;28;20214;-84
2022/02/21 06:45:06;;;;;;;3.27;1.20;;;5.00;99.90;;;;;;5008193;28;20241;-83
2022/02/21 06:47:32;;;;;;;3.17;0.80;;;4.90;99.90;;;;;;5007791;28;20651;-83
2022/02/21 06:50:01;;;;;;;1.63;0.90;;;5.00;99.90;;;;;;5013371;28;20740;-83
2022/02/21 06:52:29;;;;;;;2.77;0.77;;;4.90;99.90;;;;;;5018781;28;20209;-83
2022/02/21 06:54:56;;;;;;;1.73;0.70;;;5.00;99.90;;;;;;5013848;28;20617;-86
2022/02/21 06:57:22;;;;;;;3.27;0.93;;;4.90;99.90;;;;;;5019051;28;20261;-83
2022/02/21 06:59:49;;;;;;;2.13;1.10;;;4.90;99.90;;;;;;5013131;28;20214;-82
2022/02/21 07:02:22;;;;;;;2.80;1.10;;;5.00;99.90;;;;;;5007626;28;20201;-83
2022/02/21 07:04:49;;;;;;;3.87;1.00;;;4.90;99.90;;;;;;5020726;28;20206;-83
2022/02/21 07:07:16;;;;;;;3.00;1.20;;;4.90;99.90;;;;;;5007430;28;20270;-83
2022/02/21 07:09:44;;;;;;;6.57;1.83;;;5.00;99.90;;;;;;5014397;28;20620;-83
2022/02/21 07:12:14;;;;;;;5.93;1.53;;;5.00;99.90;;;;;;5013558;28;20577;-83
2022/02/21 07:14:40;;;;;;;6.63;1.80;;;5.10;99.90;;;;;;5007431;28;20210;-82
2022/02/21 07:20:29;;;;;;;6.97;1.67;;;5.10;99.90;;;;;;4997671;28;20623;-83
2022/02/21 07:22:56;;;;;;;9.63;1.90;;;5.00;99.90;;;;;;5007929;28;20209;-83
2022/02/21 07:25:24;;;;;;;8.27;2.30;;;4.90;99.90;;;;;;5012739;28;20278;-83
2022/02/21 07:27:52;;;;;;;6.50;1.70;;;4.80;99.90;;;;;;5006969;28;20205;-83
2022/02/21 07:30:23;;;;;;;7.10;1.77;;;4.70;99.90;;;;;;5017143;28;20225;-83
2022/02/21 07:32:51;;;;;;;7.10;2.00;;;4.70;99.90;;;;;;5006464;28;20220;-83
2022/02/21 07:35:18;;;;;;;6.57;1.83;;;4.70;99.90;;;;;;5018673;28;20206;-84
2022/02/21 07:38:23;;;;;;;4.70;1.33;;;4.70;99.90;;;;;;5008488;28;20217;-82
2022/02/21 07:40:51;;;;;;;5.00;1.50;;;4.80;99.90;;;;;;4997613;28;20233;-82
2022/02/21 07:43:33;;;;;;;6.33;2.27;;;4.90;99.90;;;;;;5006957;28;20300;-83
2022/02/21 07:46:00;;;;;;;8.00;1.70;;;4.90;99.90;;;;;;5007172;28;20245;-83
2022/02/21 07:48:27;;;;;;;5.30;1.80;;;5.00;99.90;;;;;;5007084;28;20223;-82
2022/02/21 07:50:55;;;;;;;6.80;2.00;;;5.10;99.90;;;;;;5005099;28;20206;-83
2022/02/21 07:53:25;;;;;;;4.93;1.70;;;5.20;99.90;;;;;;5006405;28;20731;-84
2022/02/21 07:55:53;;;;;;;6.90;2.07;;;5.20;99.90;;;;;;5062744;28;20262;-83
2022/02/21 07:58:21;;;;;;;4.13;2.27;;;5.40;99.90;;;;;;5055498;27;20213;-83
2022/02/21 08:00:47;;;;;;;4.67;1.77;;;5.40;99.90;;;;;;5005854;28;20208;-84
2022/02/21 08:03:14;;;;;;;4.80;1.60;;;5.50;99.90;;;;;;5016937;28;20732;-83
2022/02/21 08:05:41;;;;;;;3.43;1.10;;;5.50;99.90;;;;;;5036901;28;20269;-83
2022/02/21 08:08:26;;;;;;;4.27;1.90;;;5.50;99.90;;;;;;5012811;28;20209;-84
2022/02/21 08:10:54;;;;;;;4.10;1.30;;;5.50;99.90;;;;;;5017280;28;20213;-84
2022/02/21 08:13:36;;;;;;;3.43;1.43;;;5.60;99.90;;;;;;5011988;28;20988;-84
2022/02/21 08:16:03;;;;;;;2.93;1.27;;;5.70;99.90;;;;;;5011364;28;20270;-84
2022/02/21 08:18:29;;;;;;;2.83;1.10;;;5.70;99.90;;;;;;5007293;28;20257;-83
2022/02/21 08:24:18;;;;;;;5.67;1.60;;;5.70;99.90;;;;;;5019547;28;20679;-84
2022/02/21 08:26:46;;;;;;;3.67;1.40;;;5.50;99.90;;;;;;4999650;28;20648;-84
2022/02/21 08:29:13;;;;;;;4.90;1.33;;;5.50;99.90;;;;;;5014042;28;20209;-83
2022/02/21 08:31:40;;;;;;;2.67;1.20;;;5.40;99.90;;;;;;5018320;28;20633;-82
2022/02/21 08:34:08;;;;;;;5.57;1.33;;;5.40;99.90;;;;;;5006667;28;20264;-84
2022/02/21 08:36:36;;;;;;;3.70;1.27;;;5.30;99.90;;;;;;5017166;28;20696;-84
2022/02/21 08:39:03;;;;;;;7.07;1.80;;;5.30;99.90;;;;;;5010103;28;20664;-84
2022/02/21 08:41:30;;;;;;;4.43;1.50;;;5.30;99.90;;;;;;5012714;28;20201;-83
2022/02/21 08:43:58;;;;;;;4.00;1.60;;;5.30;99.90;;;;;;5004352;28;20217;-84
2022/02/21 08:46:25;;;;;;;7.50;2.17;;;5.20;99.90;;;;;;5094697;28;20234;-84
2022/02/21 08:48:53;;;;;;;3.97;1.60;;;5.30;99.90;;;;;;5027620;28;20220;-83
2022/02/21 08:51:20;;;;;;;7.63;2.10;;;5.30;99.90;;;;;;5004908;28;20341;-84
2022/02/21 08:53:46;;;;;;;8.70;1.90;;;5.40;99.90;;;;;;5024143;28;20260;-84
2022/02/21 08:56:13;;;;;;;4.57;1.70;;;5.50;99.90;;;;;;5016695;28;20720;-83
2022/02/21 08:58:40;;;;;;;5.83;1.63;;;5.60;99.90;;;;;;5010758;28;20198;-83
2022/02/21 09:01:08;;;;;;;3.73;1.60;;;5.60;99.90;;;;;;5020308;28;20634;-83
2022/02/21 09:03:35;;;;;;;3.93;1.20;;;5.60;99.90;;;;;;5007541;28;20201;-85
2022/02/21 09:06:06;;;;;;;6.70;1.60;;;5.60;99.90;;;;;;5017594;28;20229;-83
2022/02/21 09:08:33;;;;;;;5.10;1.67;;;5.50;99.90;;;;;;5005813;28;20209;-84
2022/02/21 09:11:01;;;;;;;6.10;1.47;;;5.60;99.90;;;;;;5017221;28;20205;-83
2022/02/21 09:13:28;;;;;;;6.13;1.80;;;5.50;99.90;;;;;;5018613;28;20205;-84
2022/02/21 09:15:55;;;;;;;5.50;2.10;;;5.60;99.90;;;;;;5009105;28;20586;-82
2022/02/21 09:18:23;;;;;;;6.13;1.83;;;5.60;99.90;;;;;;5011759;28;20928;-84
2022/02/21 09:20:51;;;;;;;4.40;1.27;;;5.60;99.90;;;;;;5011252;28;20210;-83
2022/02/21 09:23:18;;;;;;;3.77;1.20;;;5.60;99.90;;;;;;5028079;28;20217;-83
2022/02/21 09:25:45;;;;;;;7.27;1.80;;;5.60;99.90;;;;;;5015355;28;20626;-83
2022/02/21 09:28:11;;;;;;;3.83;1.60;;;5.70;99.90;;;;;;5018954;28;20213;-83
2022/02/21 09:30:38;;;;;;;5.80;1.67;;;5.70;99.90;;;;;;5027089;28;20205;-83
2022/02/21 09:33:05;;;;;;;3.37;1.40;;;5.70;99.90;;;;;;5092630;28;20214;-84
2022/02/21 09:35:33;;;;;;;4.77;1.83;;;5.70;99.90;;;;;;5020280;28;20258;-83
2022/02/21 09:37:59;;;;;;;4.47;1.70;;;5.70;99.90;;;;;;5008138;28;20756;-82
2022/02/21 09:40:26;;;;;;;3.13;1.10;;;5.70;99.90;;;;;;5013728;28;20216;-83
2022/02/21 09:42:53;;;;;;;3.93;1.67;;;5.80;99.90;;;;;;5026067;28;20262;-83
2022/02/21 09:45:20;;;;;;;6.07;1.37;;;5.80;99.90;;;;;;5027159;28;20212;-83
2022/02/21 09:47:50;;;;;;;5.37;1.57;;;5.90;99.90;;;;;;5020190;28;20233;-83
2022/02/21 09:50:17;;;;;;;5.23;1.33;;;6.00;99.90;;;;;;5012697;28;20262;-83
2022/02/21 09:52:46;;;;;;;4.70;1.50;;;6.10;99.90;;;;;;5007318;28;20241;-83
2022/02/21 09:55:13;;;;;;;5.43;1.80;;;6.10;99.90;;;;;;5004603;28;20237;-84
2022/02/21 09:57:41;;;;;;;3.63;1.40;;;6.10;99.90;;;;;;5008395;28;20579;-85
2022/02/21 10:00:09;;;;;;;6.80;1.40;;;6.00;99.90;;;;;;5039123;28;20206;-83
2022/02/21 10:02:36;;;;;;;4.10;1.63;;;6.00;99.90;;;;;;5024189;28;20668;-83
2022/02/21 10:05:10;;;;;;;3.53;1.33;;;6.00;99.90;;;;;;5014247;28;20263;-83
2022/02/21 10:07:37;;;;;;;3.97;1.37;;;6.10;99.90;;;;;;5014067;28;20235;-82
2022/02/21 10:10:06;;;;;;;4.70;1.90;;;6.00;99.90;;;;;;5100425;28;20651;-83
2022/02/21 10:12:44;;;;;;;2.97;1.27;;;6.10;99.90;;;;;;5047569;28;20214;-83
2022/02/21 10:15:16;;;;;;;3.23;1.33;;;6.10;99.90;;;;;;5074182;28;20209;-83
2022/02/21 10:17:43;;;;;;;4.63;1.40;;;6.10;99.90;;;;;;5077588;28;20217;-83
2022/02/21 10:20:10;;;;;;;3.67;1.33;;;6.10;99.90;;;;;;5040015;28;20218;-84
2022/02/21 10:22:37;;;;;;;3.70;1.17;;;6.10;99.90;;;;;;5014154;28;20210;-83
2022/02/21 10:25:16;;;;;;;4.47;1.40;;;6.10;99.90;;;;;;5027189;28;20823;-83
2022/02/21 10:27:42;;;;;;;3.53;1.23;;;6.00;99.90;;;;;;5018386;28;20336;-83
2022/02/21 10:30:16;;;;;;;5.27;1.50;;;6.00;99.90;;;;;;5021293;28;20209;-83
2022/02/21 10:32:44;;;;;;;2.87;1.57;;;6.00;99.90;;;;;;5018578;28;20289;-82
2022/02/21 10:35:12;;;;;;;4.80;1.20;;;6.00;99.90;;;;;;4990123;28;20206;-82
2022/02/21 10:37:43;;;;;;;2.93;1.30;;;6.00;99.90;;;;;;5030381;28;20280;-82
2022/02/21 10:40:16;;;;;;;4.53;1.60;;;6.00;99.90;;;;;;5017332;28;20604;-86
2022/02/21 10:42:44;;;;;;;3.73;1.03;;;6.00;99.90;;;;;;5013227;28;20205;-82
2022/02/21 10:45:13;;;;;;;3.20;1.30;;;6.00;99.90;;;;;;5006421;28;20230;-82
2022/02/21 10:47:41;;;;;;;6.23;1.47;;;6.00;99.90;;;;;;5007280;28;20239;-82
2022/02/21 10:50:10;;;;;;;3.37;1.47;;;6.10;99.90;;;;;;5012991;28;20218;-83
2022/02/21 10:52:39;;;;;;;4.30;1.60;;;6.10;99.90;;;;;;5009700;28;20233;-82
2022/02/21 10:55:09;;;;;;;4.43;1.60;;;6.10;99.90;;;;;;5014054;28;20286;-83
2022/02/21 10:57:48;;;;;;;5.20;1.87;;;6.10;99.90;;;;;;5014225;28;20202;-83
2022/02/21 11:00:15;;;;;;;3.77;1.47;;;6.10;99.90;;;;;;4991937;28;20212;-83
2022/02/21 11:02:43;;;;;;;6.10;1.20;;;6.10;99.90;;;;;;5037382;28;20210;-82
2022/02/21 11:05:11;;;;;;;3.37;1.03;;;6.00;99.90;;;;;;5068918;28;20240;-82
2022/02/21 11:07:41;;;;;;;3.47;1.50;;;6.00;99.90;;;;;;5009616;28;20237;-84
2022/02/21 11:10:08;;;;;;;4.83;1.93;;;6.00;99.90;;;;;;5025244;28;20334;-83
2022/02/21 11:12:39;;;;;;;4.63;1.40;;;6.00;99.90;;;;;;5012477;28;20209;-82
2022/02/21 11:15:08;;;;;;;2.67;1.50;;;6.10;99.90;;;;;;5013634;28;20749;-82
2022/02/21 11:17:37;;;;;;;6.40;1.77;;;6.10;99.90;;;;;;5008015;28;20221;-82
2022/02/21 11:20:04;;;;;;;5.50;1.50;;;6.10;99.90;;;;;;5019600;28;20210;-82
2022/02/21 11:22:32;;;;;;;2.83;1.43;;;6.20;99.90;;;;;;5014655;28;20235;-83
2022/02/21 11:25:08;;;;;;;6.17;2.00;;;6.20;99.90;;;;;;5008404;28;20209;-83
2022/02/21 11:27:43;;;;;;;5.13;1.60;;;6.30;99.90;;;;;;5041965;28;20245;-83
2022/02/21 11:30:15;;;;;;;2.73;1.50;;;6.30;99.90;;;;;;5069821;28;20209;-82
2022/02/21 11:33:01;;;;;;;4.00;1.50;;;6.30;99.90;;;;;;5020889;28;20258;-82
2022/02/21 11:35:28;;;;;;;4.17;1.60;;;6.30;99.90;;;;;;5028647;28;20671;-82
2022/02/21 11:38:00;;;;;;;6.30;1.50;;;6.30;99.90;;;;;;5094791;28;20259;-82
2022/02/21 11:40:27;;;;;;;4.50;1.57;;;6.30;99.90;;;;;;5046132;28;20254;-81
2022/02/21 11:42:54;;;;;;;4.47;1.40;;;6.30;99.90;;;;;;5058814;28;20210;-82
2022/02/21 11:45:25;;;;;;;4.07;1.80;;;6.30;99.90;;;;;;5000574;28;20676;-83
2022/02/21 11:47:57;;;;;;;5.17;1.50;;;6.30;99.90;;;;;;5007884;28;20230;-83
2022/02/21 11:50:28;;;;;;;4.53;1.70;;;6.30;99.90;;;;;;4991399;28;20258;-82
2022/02/21 11:52:56;;;;;;;4.73;1.40;;;6.30;99.90;;;;;;5040037;28;20239;-83
2022/02/21 11:55:41;;;;;;;2.70;1.37;;;6.30;99.90;;;;;;5008535;28;20254;-82
2022/02/21 11:58:36;;;;;;;5.77;1.53;;;6.40;99.90;;;;;;5038041;28;20208;-84
2022/02/21 12:01:21;;;;;;;4.47;1.40;;;6.40;99.90;;;;;;5011732;28;20213;-83
2022/02/21 12:04:17;;;;;;;2.30;1.53;;;6.40;99.90;;;;;;5006458;28;20217;-82
2022/02/21 12:06:55;;;;;;;3.67;1.27;;;6.40;99.90;;;;;;5005799;28;20206;-82
2022/02/21 12:09:21;;;;;;;4.00;1.30;;;6.50;99.90;;;;;;5012846;28;20213;-83
2022/02/21 12:11:48;;;;;;;2.23;1.30;;;6.50;99.90;;;;;;5012047;28;20205;-82
2022/02/21 12:14:23;;;;;;;2.77;1.27;;;6.50;99.90;;;;;;5063546;28;20227;-82
2022/02/21 12:17:18;;;;;;;2.13;1.17;;;6.50;99.90;;;;;;5043945;28;20636;-82
2022/02/21 12:19:44;;;;;;;4.43;1.50;;;6.50;99.90;;;;;;4992516;28;20558;-82
2022/02/21 12:22:17;;;;;;;5.17;1.70;;;6.50;99.90;;;;;;5016629;28;20205;-83
2022/02/21 12:25:13;;;;;;;3.87;1.50;;;6.50;99.90;;;;;;5006739;28;20214;-81
2022/02/21 12:28:14;;;;;;;3.97;1.50;;;6.40;99.90;;;;;;4988612;28;20237;-82
2022/02/21 12:30:44;;;;;;;3.80;1.30;;;6.40;99.90;;;;;;5010449;28;20205;-81
2022/02/21 12:33:13;;;;;;;4.60;1.23;;;6.40;99.90;;;;;;5012624;28;20210;-81
2022/02/21 12:35:47;;;;;;;5.03;1.27;;;6.40;99.90;;;;;;5006571;28;20716;-81
2022/02/21 12:38:15;;;;;;;2.53;1.23;;;6.40;99.90;;;;;;5011618;28;20266;-81
2022/02/21 12:40:54;;;;;;;3.40;1.83;;;6.40;99.90;;;;;;5006600;28;20287;-81
2022/02/21 12:43:21;;;;;;;4.30;1.70;;;6.30;99.90;;;;;;5006229;28;20274;-82
2022/02/21 12:45:48;;;;;;;3.43;1.57;;;6.40;99.90;;;;;;5006186;28;20206;-82
2022/02/21 12:48:16;;;;;;;2.60;1.43;;;6.40;99.90;;;;;;5004682;28;20636;-80
2022/02/21 12:50:43;;;;;;;2.33;1.23;;;6.30;99.90;;;;;;5011923;28;20912;-82
2022/02/21 12:53:09;;;;;;;2.77;1.50;;;6.40;99.90;;;;;;5005682;28;20294;-82
2022/02/21 12:55:47;;;;;;;3.30;1.60;;;6.40;99.90;;;;;;5013817;28;20294;-82
2022/02/21 12:58:14;;;;;;;3.17;1.40;;;6.40;99.90;;;;;;5005330;28;20349;-81
2022/02/21 13:00:40;;;;;;;2.60;1.10;;;6.40;99.90;;;;;;5088556;28;20274;-82
2022/02/21 13:03:07;;;;;;;3.10;1.27;;;6.40;99.90;;;;;;5016901;28;20210;-80
2022/02/21 13:05:35;;;;;;;4.27;1.70;;;6.40;99.90;;;;;;5005528;28;20214;-81
2022/02/21 13:08:03;;;;;;;4.03;1.30;;;6.40;99.90;;;;;;5005252;28;20285;-81
2022/02/21 13:10:43;;;;;;;2.07;1.20;;;6.40;99.90;;;;;;5004232;28;20251;-81
2022/02/21 13:13:09;;;;;;;3.77;1.30;;;6.40;99.90;;;;;;5005526;28;20197;-86
2022/02/21 13:15:38;;;;;;;5.80;1.40;;;6.40;99.90;;;;;;5007407;28;20221;-82